Time;durP1;ratioP1;P1;durP2;ratioP2;P2;SDS_P1;SDS_P2;PMS_P1;PMS_P2;Temp;Humidity;BMP_temperature;BMP_pressure;BME280_temperature;BME280_humidity;BME280_pressure;Samples;Min_cycle;Max_cycle;Signal;HPM_P1;HPM_P2
2023/03/13 00:01:40;;;;;;;8.40;2.50;;;;;;;-2.44;100.00;99659.02;110407;1275;22955;-68
2023/03/13 00:04:08;;;;;;;7.00;2.30;;;;;;;-2.52;100.00;99662.74;110394;1274;22729;-68
2023/03/13 00:06:42;;;;;;;7.50;2.00;;;;;;;-2.57;100.00;99662.98;110410;1276;22269;-68
2023/03/13 00:09:11;;;;;;;6.40;1.90;;;;;;;-2.53;100.00;99666.67;110403;1275;22986;-68
2023/03/13 00:11:42;;;;;;;5.50;1.70;;;;;;;-2.52;100.00;99665.39;110409;1275;22252;-68
2023/03/13 00:14:11;;;;;;;6.70;1.60;;;;;;;-2.51;100.00;99668.17;110417;1275;22301;-68
2023/03/13 00:16:41;;;;;;;5.80;1.90;;;;;;;-2.55;100.00;99671.70;110388;1273;22319;-68
2023/03/13 00:19:11;;;;;;;6.30;2.10;;;;;;;-2.61;100.00;99671.75;110423;1276;22902;-68
2023/03/13 00:21:40;;;;;;;4.30;1.80;;;;;;;-2.65;100.00;99671.20;110426;1275;24483;-68
2023/03/13 00:24:15;;;;;;;6.50;1.60;;;;;;;-2.64;100.00;99672.71;110324;1275;23338;-70
2023/03/13 00:26:43;;;;;;;5.60;1.60;;;;;;;-2.60;100.00;99673.94;110354;1271;23109;-70
2023/03/13 00:29:11;;;;;;;4.50;1.30;;;;;;;-2.62;100.00;99670.63;110378;1273;22283;-70
2023/03/13 00:31:46;;;;;;;5.20;1.20;;;;;;;-2.67;100.00;99678.21;110415;1275;22929;-70
2023/03/13 00:34:16;;;;;;;4.20;1.50;;;;;;;-2.73;100.00;99671.21;110382;1275;22279;-70
2023/03/13 00:36:45;;;;;;;6.40;2.00;;;;;;;-2.72;100.00;99671.80;110352;1268;22318;-70
2023/03/13 00:39:14;;;;;;;5.70;1.90;;;;;;;-2.70;100.00;99671.78;110349;1276;23185;-70
2023/03/13 00:41:45;;;;;;;7.10;1.80;;;;;;;-2.72;100.00;99673.64;110393;1276;22456;-70
2023/03/13 00:44:13;;;;;;;6.10;2.30;;;;;;;-2.79;100.00;99678.43;110395;1271;22499;-70
2023/03/13 00:46:41;;;;;;;7.40;2.20;;;;;;;-2.84;100.00;99678.70;110399;1275;22283;-70
2023/03/13 00:49:10;;;;;;;6.80;2.30;;;;;;;-2.87;100.00;99678.42;110405;1270;22196;-70
2023/03/13 00:51:40;;;;;;;7.90;1.90;;;;;;;-2.85;100.00;99674.89;110358;1272;23156;-70
2023/03/13 00:54:08;;;;;;;5.10;2.10;;;;;;;-2.82;100.00;99675.33;110403;1275;22440;-70
2023/03/13 00:56:41;;;;;;;7.10;1.80;;;;;;;-2.85;100.00;99672.83;110427;1273;22553;-70
2023/03/13 00:59:09;;;;;;;5.20;2.10;;;;;;;-2.90;100.00;99670.80;110365;1275;22969;-70
2023/03/13 01:01:38;;;;;;;5.90;1.70;;;;;;;-2.96;100.00;99667.09;110391;1274;22319;-70
2023/03/13 01:04:11;;;;;;;5.60;1.90;;;;;;;-2.99;100.00;99669.34;110339;1271;22292;-70
2023/03/13 01:06:41;;;;;;;5.30;1.80;;;;;;;-2.96;100.00;99668.60;110342;1270;22324;-70
2023/03/13 01:09:12;;;;;;;7.40;1.70;;;;;;;-2.92;100.00;99666.16;110397;1272;22409;-70
2023/03/13 01:11:44;;;;;;;4.40;1.50;;;;;;;-2.94;100.00;99665.06;110388;1271;22828;-70
2023/03/13 01:14:16;;;;;;;3.70;1.40;;;;;;;-2.97;100.00;99662.73;110373;1273;22217;-70
2023/03/13 01:16:47;;;;;;;4.10;1.10;;;;;;;-3.00;100.00;99660.42;110331;1272;23268;-70
2023/03/13 01:19:17;;;;;;;3.60;1.00;;;;;;;-2.95;100.00;99660.95;110403;1273;22226;-70
2023/03/13 01:21:46;;;;;;;7.60;1.60;;;;;;;-2.89;100.00;99658.86;110340;1270;22408;-70
2023/03/13 01:24:15;;;;;;;4.00;1.30;;;;;;;-2.90;100.00;99659.70;110342;1273;23126;-70
2023/03/13 01:26:49;;;;;;;3.20;1.10;;;;;;;-2.93;100.00;99667.20;110411;1273;22261;-70
2023/03/13 01:29:19;;;;;;;3.70;1.20;;;;;;;-2.97;100.00;99667.15;110325;1270;22986;-70
2023/03/13 01:31:48;;;;;;;4.90;1.50;;;;;;;-2.94;100.00;99673.21;110334;1270;22437;-70
2023/03/13 01:34:22;;;;;;;3.90;1.00;;;;;;;-2.90;100.00;99681.88;110373;1270;22235;-70
2023/03/13 01:36:52;;;;;;;3.70;0.90;;;;;;;-2.89;100.00;99685.98;110377;1270;22344;-70
2023/03/13 01:39:21;;;;;;;3.30;1.30;;;;;;;-2.93;100.00;99683.36;110387;1274;22663;-70
2023/03/13 01:41:49;;;;;;;4.80;1.40;;;;;;;-2.99;100.00;99686.42;110313;1271;23160;-70
2023/03/13 01:44:25;;;;;;;4.60;1.70;;;;;;;-3.05;100.00;99689.35;110343;1275;22430;-69
2023/03/13 01:46:55;;;;;;;4.50;1.60;;;;;;;-3.10;100.00;99697.48;110364;1270;22371;-70
2023/03/13 01:49:32;;;;;;;5.70;2.00;;;;;;;-3.10;100.00;99698.88;110374;1274;22479;-70
2023/03/13 01:52:08;;;;;;;4.60;1.70;;;;;;;-3.07;100.00;99702.96;110263;1276;23026;-70
2023/03/13 01:54:49;;;;;;;6.00;1.90;;;;;;;-3.11;100.00;99704.31;110348;1276;22219;-70
2023/03/13 01:57:26;;;;;;;5.10;1.80;;;;;;;-3.18;100.00;99706.71;110334;1269;22298;-70
2023/03/13 02:00:00;;;;;;;5.10;1.50;;;;;;;-3.26;100.00;99716.87;110336;1275;22484;-70
2023/03/13 02:02:32;;;;;;;5.20;1.50;;;;;;;-3.35;100.00;99710.16;110299;1273;22237;-69
2023/03/13 02:05:02;;;;;;;2.60;1.00;;;;;;;-3.44;100.00;99708.77;110310;1275;23219;-70
2023/03/13 02:07:38;;;;;;;6.00;1.00;;;;;;;-3.51;100.00;99708.02;110399;1274;22414;-70
2023/03/13 02:10:08;;;;;;;3.40;0.80;;;;;;;-3.50;100.00;99710.35;110278;1267;23264;-69
2023/03/13 02:12:40;;;;;;;3.10;0.80;;;;;;;-3.48;100.00;99715.49;110384;1273;23085;-70
2023/03/13 02:15:14;;;;;;;3.00;0.80;;;;;;;-3.55;100.00;99717.41;110439;1273;22404;-70
2023/03/13 02:17:43;;;;;;;1.90;0.60;;;;;;;-3.62;100.00;99718.39;110302;1268;22305;-70
2023/03/13 02:20:13;;;;;;;4.00;0.90;;;;;;;-3.70;100.00;99724.61;110265;1270;22264;-70
2023/03/13 02:22:47;;;;;;;2.70;0.80;;;;;;;-3.75;100.00;99724.52;110363;1272;22269;-70
2023/03/13 02:25:18;;;;;;;1.90;0.60;;;;;;;-3.73;100.00;99726.08;109997;1267;424679;-70
2023/03/13 02:29:53;;;;;;;3.50;0.80;;;;;;;-3.72;100.00;99723.95;104306;1312;545279;-69
2023/03/13 02:32:25;;;;;;;3.30;0.80;;;;;;;-3.80;100.00;99728.52;106705;1286;25649;-68
2023/03/13 02:34:56;;;;;;;4.20;0.90;;;;;;;-3.88;100.00;99732.46;106618;1288;22556;-69
2023/03/13 02:37:25;;;;;;;1.90;0.60;;;;;;;-3.95;100.00;99733.16;109397;1285;22394;-69
2023/03/13 02:39:53;;;;;;;2.40;0.70;;;;;;;-4.01;100.00;99732.57;109455;1288;22194;-69
2023/03/13 02:42:22;;;;;;;3.10;0.80;;;;;;;-3.99;100.00;99734.69;109147;1283;133668;-70
2023/03/13 02:44:51;;;;;;;2.50;0.80;;;;;;;-3.98;100.00;99735.01;109443;1280;22330;-69
2023/03/13 02:47:20;;;;;;;2.40;0.50;;;;;;;-3.96;100.00;99742.30;109672;1286;23108;-70
2023/03/13 02:49:49;;;;;;;1.30;0.50;;;;;;;-4.01;100.00;99746.23;109671;1286;22255;-69
2023/03/13 02:52:18;;;;;;;3.50;0.50;;;;;;;-4.05;100.00;99749.02;109569;1286;22344;-69
2023/03/13 02:54:49;;;;;;;1.90;0.80;;;;;;;-4.11;100.00;99746.30;109583;1286;23204;-69
2023/03/13 02:57:17;;;;;;;2.60;0.80;;;;;;;-4.16;100.00;99749.00;109553;1286;22295;-69
2023/03/13 02:59:45;;;;;;;3.90;0.90;;;;;;;-4.21;100.00;99750.01;109606;1283;22266;-69
2023/03/13 03:02:14;;;;;;;2.20;0.70;;;;;;;-4.21;100.00;99748.04;109600;1280;22292;-69
2023/03/13 03:04:42;;;;;;;3.90;1.30;;;;;;;-4.20;100.00;99748.06;109568;1283;22238;-69
2023/03/13 03:07:11;;;;;;;4.10;0.90;;;;;;;-4.20;100.00;99749.80;109584;1282;22266;-69
2023/03/13 03:09:39;;;;;;;2.30;0.80;;;;;;;-4.25;100.00;99757.86;109555;1286;22895;-69
2023/03/13 03:12:14;;;;;;;3.50;0.60;;;;;;;-4.30;100.00;99761.16;109717;1285;22210;-69
2023/03/13 03:14:43;;;;;;;2.60;0.70;;;;;;;-4.35;100.00;99764.02;109711;1279;22534;-69
2023/03/13 03:17:12;;;;;;;2.50;0.70;;;;;;;-4.40;100.00;99768.17;109641;1286;22205;-69
2023/03/13 03:19:43;;;;;;;1.60;0.60;;;;;;;-4.46;100.00;99773.13;109598;1280;22637;-69
2023/03/13 03:22:12;;;;;;;6.40;1.50;;;;;;;-4.46;100.00;99778.57;109691;1286;22239;-69
2023/03/13 03:24:41;;;;;;;7.20;1.60;;;;;;;-4.42;100.00;99782.68;109703;1279;23043;-70
2023/03/13 03:27:09;;;;;;;7.10;1.50;;;;;;;-4.40;100.00;99781.83;109719;1280;22926;-69
2023/03/13 03:29:42;;;;;;;4.20;1.40;;;;;;;-4.45;100.00;99785.89;109572;1285;22504;-70
2023/03/13 03:32:11;;;;;;;5.90;1.60;;;;;;;-4.49;100.00;99792.23;109592;1281;22260;-69
2023/03/13 03:34:39;;;;;;;4.80;1.30;;;;;;;-4.56;100.00;99798.27;109682;1285;22211;-69
2023/03/13 03:37:08;;;;;;;5.70;1.50;;;;;;;-4.62;100.00;99808.36;109638;1286;22509;-69
2023/03/13 03:39:36;;;;;;;7.20;1.60;;;;;;;-4.64;100.00;99819.73;109582;1283;22838;-69
2023/03/13 03:42:05;;;;;;;4.20;1.10;;;;;;;-4.58;100.00;99829.33;109573;1279;22462;-69
2023/03/13 03:44:33;;;;;;;2.30;0.90;;;;;;;-4.57;100.00;99839.27;109591;1280;22356;-69
2023/03/13 03:47:02;;;;;;;4.00;1.10;;;;;;;-4.59;100.00;99837.90;109615;1285;22414;-70
2023/03/13 03:49:35;;;;;;;4.70;1.30;;;;;;;-4.59;100.00;99833.61;109559;1280;23211;-69
2023/03/13 03:52:04;;;;;;;5.90;1.30;;;;;;;-4.55;100.00;99837.26;109584;1287;22301;-70
2023/03/13 03:54:38;;;;;;;2.70;1.10;;;;;;;-4.51;100.00;99841.43;109565;1286;22405;-69
2023/03/13 03:57:06;;;;;;;4.80;1.30;;;;;;;-4.50;100.00;99843.88;109601;1286;22275;-69
2023/03/13 03:59:36;;;;;;;4.40;1.50;;;;;;;-4.56;100.00;99849.58;109652;1280;23259;-69
2023/03/13 04:02:07;;;;;;;6.10;1.80;;;;;;;-4.62;100.00;99852.23;109595;1287;22898;-69
2023/03/13 04:04:36;;;;;;;5.10;2.20;;;;;;;-4.66;100.00;99850.41;109533;1286;22306;-69
2023/03/13 04:07:11;;;;;;;7.50;2.60;;;;;;;-4.68;100.00;99853.35;109502;1285;22214;-69
2023/03/13 04:09:40;;;;;;;6.10;2.30;;;;;;;-4.64;100.00;99855.48;109552;1282;22499;-69
2023/03/13 04:12:16;;;;;;;5.10;1.40;;;;;;;-4.58;100.00;99858.92;109641;1285;22490;-69
2023/03/13 04:14:47;;;;;;;6.20;2.50;;;;;;;-4.53;100.00;99857.48;109550;1286;22214;-70
2023/03/13 04:17:16;;;;;;;6.30;1.90;;;;;;;-4.54;100.00;99858.25;109588;1286;22777;-69
2023/03/13 04:19:46;;;;;;;3.90;1.20;;;;;;;-4.55;100.00;99863.52;109592;1286;23246;-69
2023/03/13 04:22:14;;;;;;;5.90;1.60;;;;;;;-4.58;100.00;99871.25;109660;1285;22449;-69
2023/03/13 04:24:49;;;;;;;6.40;1.70;;;;;;;-4.56;100.00;99874.41;109596;1282;22284;-69
2023/03/13 04:27:18;;;;;;;6.20;1.90;;;;;;;-4.46;100.00;99877.44;109603;1285;22445;-69
2023/03/13 04:29:47;;;;;;;10.50;3.30;;;;;;;-4.38;100.00;99885.02;109587;1286;22355;-70
2023/03/13 04:33:01;;;;;;;22.50;6.20;;;;;;;-4.36;100.00;99886.69;109615;1282;22334;-70
2023/03/13 04:35:44;;;;;;;26.30;7.50;;;;;;;-4.40;100.00;99890.19;109622;1281;22250;-70
2023/03/13 04:38:22;;;;;;;20.90;5.50;;;;;;;-4.43;100.00;99891.01;109633;1280;23141;-70
2023/03/13 04:40:54;;;;;;;17.70;4.30;;;;;;;-4.38;100.00;99895.24;109664;1283;22400;-69
2023/03/13 04:43:44;;;;;;;8.30;2.60;;;;;;;-4.28;100.00;99896.31;109660;1280;22199;-70
2023/03/13 04:46:25;;;;;;;10.60;3.00;;;;;;;-4.19;100.00;99896.83;109564;1287;22232;-70
2023/03/13 04:49:03;;;;;;;8.50;3.10;;;;;;;-4.11;100.00;99898.59;109648;1287;22239;-69
2023/03/13 04:51:49;;;;;;;11.40;4.00;;;;;;;-3.98;100.00;99895.52;109698;1272;22313;-69
2023/03/13 04:54:53;;;;;;;23.50;7.60;;;;;;;-3.75;100.00;99905.27;109687;1282;22288;-69
2023/03/13 04:57:42;;;;;;;29.90;9.20;;;;;;;-3.48;100.00;99909.29;107129;1285;22789;-69
2023/03/13 05:00:32;;;;;;;29.20;9.70;;;;;;;-3.19;100.00;99915.13;106747;1285;22663;-69
2023/03/13 05:03:23;;;;;;;20.60;7.20;;;;;;;-2.91;100.00;99920.30;106885;1279;25411;-69
2023/03/13 05:06:10;;;;;;;17.80;7.50;;;;;;;-2.69;100.00;99925.75;106687;1280;22832;-69
2023/03/13 05:08:56;;;;;;;17.30;7.00;;;;;;;-2.47;100.00;99932.85;106837;1280;24268;-69
2023/03/13 05:11:49;;;;;;;10.80;4.50;;;;;;;-2.21;100.00;99936.98;106506;1285;26149;-70
2023/03/13 05:14:36;;;;;;;9.20;4.20;;;;;;;-1.95;100.00;99941.27;106818;1283;25346;-70
2023/03/13 05:17:24;;;;;;;10.30;3.40;;;;;;;-1.67;100.00;99939.35;106854;1280;23297;-70
2023/03/13 05:20:19;;;;;;;8.20;2.60;;;;;;;-1.32;100.00;99935.97;106837;1286;23421;-70
2023/03/13 05:23:14;;;;;;;8.40;4.00;;;;;;;-1.03;100.00;99936.36;106757;1285;25392;-70
2023/03/13 05:25:55;;;;;;;11.50;4.10;;;;;;;-0.87;100.00;99944.70;107197;1279;22537;-70
2023/03/13 05:28:36;;;;;;;10.10;3.30;;;;;;;-0.72;100.00;99948.08;106984;1279;22532;-70
2023/03/13 05:31:26;;;;;;;7.20;3.00;;;;;;;-0.53;100.00;99958.82;106934;1279;22685;-70
2023/03/13 05:34:34;;;;;;;10.40;3.60;;;;;;;-0.39;100.00;99963.86;106389;1289;22520;-70
2023/03/13 05:37:24;;;;;;;9.20;3.30;;;;;;;-0.31;100.00;99959.63;106779;1292;22574;-70
2023/03/13 05:40:15;;;;;;;10.70;3.20;;;;;;;-0.22;100.00;99964.84;106786;1283;25396;-70
2023/03/13 05:43:03;;;;;;;6.40;2.80;;;;;;;-0.10;100.00;99965.52;106952;1282;22685;-70
2023/03/13 05:45:46;;;;;;;5.30;2.10;;;;;;;-0.04;100.00;99963.00;108251;1282;22983;-70
2023/03/13 05:48:45;;;;;;;6.00;2.40;;;;;;;-0.02;100.00;99963.23;109726;1280;22388;-71
2023/03/13 05:51:52;;;;;;;6.20;2.20;;;;;;;0.09;100.00;99963.52;109319;1286;22416;-71
2023/03/13 05:54:37;;;;;;;8.20;3.20;;;;;;;0.19;100.00;99961.30;109301;1284;22374;-71
2023/03/13 05:57:13;;;;;;;6.50;2.30;;;;;;;0.27;100.00;99963.48;109556;1278;22283;-71
2023/03/13 06:00:03;;;;;;;5.30;2.60;;;;;;;0.53;100.00;99961.59;109742;1282;22304;-70
2023/03/13 06:02:43;;;;;;;6.70;2.70;;;;;;;0.77;100.00;99962.36;109777;1276;22438;-70
2023/03/13 06:05:20;;;;;;;5.00;2.60;;;;;;;0.96;100.00;99962.05;109728;1278;22383;-69
2023/03/13 06:07:50;;;;;;;7.70;3.60;;;;;;;1.13;100.00;99959.19;109784;1277;22381;-69
2023/03/13 06:10:18;;;;;;;5.90;2.50;;;;;;;1.29;100.00;99958.00;109753;1279;22351;-70
2023/03/13 06:12:53;;;;;;;5.80;2.40;;;;;;;1.47;100.00;99960.14;109825;1283;22292;-70
2023/03/13 06:15:29;;;;;;;6.60;2.60;;;;;;;1.68;100.00;99963.34;110317;1275;22264;-70
2023/03/13 06:18:10;;;;;;;6.90;3.10;;;;;;;1.87;100.00;99959.17;110276;1269;22448;-69
2023/03/13 06:20:38;;;;;;;8.50;3.20;;;;;;;2.00;100.00;99954.80;110372;1270;23319;-69
2023/03/13 06:23:10;;;;;;;7.60;3.30;;;;;;;2.06;100.00;99950.66;110432;1267;22489;-68
2023/03/13 06:25:39;;;;;;;7.20;3.60;;;;;;;2.17;100.00;99955.08;110384;1269;22309;-69
2023/03/13 06:28:08;;;;;;;8.20;3.50;;;;;;;2.29;100.00;99944.33;110444;1274;22359;-68
2023/03/13 06:30:38;;;;;;;6.50;3.60;;;;;;;2.37;100.00;99943.77;110362;1267;22370;-69
2023/03/13 06:33:06;;;;;;;6.20;3.20;;;;;;;2.40;100.00;99945.89;110413;1270;22261;-69
2023/03/13 06:35:39;;;;;;;8.00;3.40;;;;;;;2.48;100.00;99946.17;110364;1267;23012;-70
2023/03/13 06:38:25;;;;;;;7.60;4.10;;;;;;;2.54;100.00;99944.95;110368;1267;22286;-70
2023/03/13 06:40:54;;;;;;;7.50;3.60;;;;;;;2.65;100.00;99948.33;110382;1270;22912;-69
2023/03/13 06:43:22;;;;;;;6.80;3.30;;;;;;;2.79;100.00;99944.53;110421;1275;22237;-69
2023/03/13 06:45:51;;;;;;;9.20;4.20;;;;;;;2.96;100.00;99948.23;110439;1269;22167;-69
2023/03/13 06:48:21;;;;;;;11.00;4.70;;;;;;;3.09;100.00;99949.16;110398;1273;22281;-69
2023/03/13 06:50:50;;;;;;;9.20;4.60;;;;;;;3.18;100.00;99944.23;110395;1273;22312;-69
2023/03/13 06:53:18;;;;;;;8.30;4.30;;;;;;;3.30;100.00;99947.88;110418;1267;22193;-70
2023/03/13 06:55:47;;;;;;;8.20;4.00;;;;;;;3.43;100.00;99947.98;110330;1275;22193;-69
2023/03/13 06:58:20;;;;;;;8.90;4.30;;;;;;;3.52;100.00;99948.61;110405;1269;22264;-72
2023/03/13 07:01:08;;;;;;;8.90;4.70;;;;;;;3.63;100.00;99944.73;110423;1273;23109;-70
2023/03/13 07:03:37;;;;;;;10.80;4.70;;;;;;;3.74;100.00;99941.81;110361;1273;22299;-69
2023/03/13 07:06:05;;;;;;;8.30;4.10;;;;;;;3.87;100.00;99941.67;110374;1267;22337;-70
2023/03/13 07:08:34;;;;;;;9.70;4.60;;;;;;;3.93;100.00;99943.26;110389;1273;22289;-69
2023/03/13 07:11:06;;;;;;;8.10;3.70;;;;;;;3.92;100.00;99946.35;110239;1273;23338;-69
2023/03/13 07:13:36;;;;;;;8.40;5.00;;;;;;;3.87;100.00;99943.41;110393;1269;23147;-69
2023/03/13 07:16:08;;;;;;;7.80;4.00;;;;;;;3.84;100.00;99950.52;110339;1270;22232;-69
2023/03/13 07:18:41;;;;;;;8.70;4.20;;;;;;;3.88;100.00;99949.70;110422;1275;22334;-69
2023/03/13 07:21:09;;;;;;;10.20;4.60;;;;;;;3.90;100.00;99944.79;110382;1269;23217;-70
2023/03/13 07:23:38;;;;;;;6.90;3.70;;;;;;;3.88;100.00;99947.71;110434;1270;22260;-69
2023/03/13 07:26:09;;;;;;;8.30;4.10;;;;;;;3.88;100.00;99944.73;110446;1267;22238;-69
2023/03/13 07:28:38;;;;;;;9.10;4.10;;;;;;;3.91;100.00;99939.39;110439;1268;22460;-69
2023/03/13 07:31:13;;;;;;;7.80;3.90;;;;;;;3.95;100.00;99939.44;110439;1270;22321;-69
2023/03/13 07:33:45;;;;;;;8.60;4.00;;;;;;;3.97;100.00;99935.31;110384;1270;22420;-69
2023/03/13 07:36:14;;;;;;;6.50;3.40;;;;;;;4.04;100.00;99936.81;110389;1267;22365;-69
2023/03/13 07:38:47;;;;;;;6.80;3.60;;;;;;;4.13;100.00;99937.66;110192;1271;22168;-69
2023/03/13 07:41:15;;;;;;;6.60;3.70;;;;;;;4.26;100.00;99934.21;110470;1275;22220;-69
2023/03/13 07:43:43;;;;;;;6.50;3.90;;;;;;;4.39;100.00;99931.09;110443;1272;22322;-70
2023/03/13 07:46:17;;;;;;;10.90;4.60;;;;;;;4.47;100.00;99925.28;110395;1269;22324;-69
2023/03/13 07:48:46;;;;;;;6.60;3.90;;;;;;;4.54;100.00;99923.96;110451;1274;22408;-69
2023/03/13 07:51:16;;;;;;;7.10;3.80;;;;;;;4.55;100.00;99919.34;110461;1275;22183;-69
2023/03/13 07:53:46;;;;;;;6.40;3.70;;;;;;;4.55;100.00;99921.33;110375;1270;22372;-69
2023/03/13 07:56:16;;;;;;;9.30;4.00;;;;;;;4.56;100.00;99915.59;110417;1275;22693;-69
2023/03/13 07:58:44;;;;;;;6.80;3.80;;;;;;;4.52;100.00;99921.32;110458;1275;22229;-69
2023/03/13 08:01:21;;;;;;;6.80;3.40;;;;;;;4.52;100.00;99920.50;110434;1275;22232;-70
2023/03/13 08:03:54;;;;;;;10.70;4.50;;;;;;;4.73;100.00;99927.92;110383;1270;22425;-69
2023/03/13 08:06:30;;;;;;;;;;;;;;;4.90;100.00;99933.33;110457;1274;23053;-69
2023/03/13 08:09:02;;;;;;;9.20;5.20;;;;;;;4.92;100.00;99932.33;110401;1269;23148;-69
2023/03/13 08:11:31;;;;;;;8.10;4.10;;;;;;;4.96;100.00;99934.73;110384;1270;22343;-70
2023/03/13 08:14:01;;;;;;;7.80;4.10;;;;;;;5.11;100.00;99939.92;110426;1275;22358;-69
2023/03/13 08:16:33;;;;;;;9.70;3.80;;;;;;;5.27;100.00;99938.55;110238;1273;22527;-69
2023/03/13 08:19:03;;;;;;;8.10;4.20;;;;;;;5.38;100.00;99943.48;110450;1275;22267;-69
2023/03/13 08:21:34;;;;;;;8.50;3.70;;;;;;;5.44;100.00;99943.84;110408;1274;22343;-69
2023/03/13 08:24:04;;;;;;;6.60;3.90;;;;;;;5.38;100.00;99942.88;110469;1273;22275;-69
2023/03/13 08:26:40;;;;;;;7.10;4.00;;;;;;;5.31;100.00;99943.61;110465;1275;22381;-69
2023/03/13 08:29:11;;;;;;;8.70;3.50;;;;;;;5.32;100.00;99945.32;110442;1268;22838;-69
2023/03/13 08:31:44;;;;;;;7.50;3.10;;;;;;;5.41;100.00;99943.17;110451;1273;22996;-70
2023/03/13 08:34:13;;;;;;;7.00;3.50;;;;;;;5.51;100.00;99933.09;110429;1267;22434;-69
2023/03/13 08:36:42;;;;;;;8.20;3.40;;;;;;;5.59;100.00;99931.13;110422;1270;22219;-69
2023/03/13 08:39:16;;;;;;;7.40;2.90;;;;;;;5.65;100.00;99935.67;110407;1273;23077;-69
2023/03/13 08:41:46;;;;;;;6.00;3.00;;;;;;;5.69;100.00;99942.38;110404;1275;22354;-69
2023/03/13 08:44:20;;;;;;;7.10;3.20;;;;;;;5.68;100.00;99940.06;110446;1272;23063;-69
2023/03/13 08:46:48;;;;;;;6.70;2.90;;;;;;;5.68;100.00;99937.06;110447;1275;22218;-70
2023/03/13 08:49:16;;;;;;;8.50;3.30;;;;;;;5.72;100.00;99940.60;110431;1270;22257;-70
2023/03/13 08:51:44;;;;;;;7.60;3.50;;;;;;;5.77;100.00;99934.30;110431;1275;22447;-70
2023/03/13 08:54:13;;;;;;;7.30;3.10;;;;;;;5.84;100.00;99934.95;110455;1273;23128;-70
2023/03/13 08:56:42;;;;;;;7.20;3.20;;;;;;;5.89;100.00;99931.02;110470;1267;22348;-70
2023/03/13 08:59:11;;;;;;;7.40;3.30;;;;;;;5.80;100.00;99929.48;110425;1273;22961;-69
2023/03/13 09:01:40;;;;;;;7.60;3.00;;;;;;;5.73;100.00;99926.10;110441;1275;22666;-70
2023/03/13 09:04:08;;;;;;;8.00;3.50;;;;;;;5.69;100.00;99931.56;110426;1274;23150;-70
2023/03/13 09:06:37;;;;;;;8.90;4.50;;;;;;;5.66;100.00;99927.39;110450;1272;22268;-69
2023/03/13 09:09:10;;;;;;;10.00;4.80;;;;;;;5.68;100.00;99930.55;110412;1275;22232;-70
2023/03/13 09:11:41;;;;;;;7.70;3.40;;;;;;;5.72;100.00;99931.95;110377;1275;22231;-69
2023/03/13 09:14:09;;;;;;;6.90;3.00;;;;;;;5.81;100.00;99930.92;110406;1273;22291;-69
2023/03/13 09:16:37;;;;;;;9.30;4.10;;;;;;;5.90;100.00;99926.84;110430;1272;22343;-70
2023/03/13 09:19:06;;;;;;;6.60;3.50;;;;;;;5.88;100.00;99923.80;110448;1273;22202;-69
2023/03/13 09:21:39;;;;;;;7.70;3.50;;;;;;;5.89;100.00;99922.16;110392;1267;22598;-69
2023/03/13 09:24:08;;;;;;;11.00;4.10;;;;;;;6.02;100.00;99914.83;110456;1270;22224;-70
2023/03/13 09:26:36;;;;;;;8.00;3.70;;;;;;;6.20;100.00;99916.45;110198;1275;22326;-69
2023/03/13 09:29:04;;;;;;;9.40;3.40;;;;;;;6.31;100.00;99915.98;110459;1275;22264;-69
2023/03/13 09:31:32;;;;;;;5.80;2.70;;;;;;;6.33;100.00;99910.66;110443;1270;23205;-69
2023/03/13 09:34:01;;;;;;;5.60;2.80;;;;;;;6.28;100.00;99910.55;110428;1269;22251;-69
2023/03/13 09:36:30;;;;;;;7.60;4.00;;;;;;;6.21;100.00;99900.95;110463;1275;22225;-69
2023/03/13 09:38:58;;;;;;;7.50;2.90;;;;;;;6.14;100.00;99900.38;110449;1275;22220;-69
2023/03/13 09:41:33;;;;;;;4.80;2.50;;;;;;;6.17;100.00;99902.98;110443;1275;22390;-69
2023/03/13 09:44:07;;;;;;;6.50;2.90;;;;;;;6.24;100.00;99903.88;110382;1270;22161;-70
2023/03/13 09:46:38;;;;;;;6.30;2.80;;;;;;;6.28;100.00;99898.67;110404;1275;22187;-68
2023/03/13 09:49:21;;;;;;;6.50;2.50;;;;;;;6.30;100.00;99896.10;110411;1275;22958;-69
2023/03/13 09:52:18;;;;;;;6.40;2.90;;;;;;;6.37;100.00;99891.60;110416;1275;23181;-69
2023/03/13 09:54:51;;;;;;;6.30;2.90;;;;;;;6.51;100.00;99887.27;110415;1275;22265;-69
2023/03/13 09:57:35;;;;;;;8.50;3.30;;;;;;;6.77;100.00;99886.23;110431;1267;22996;-69
2023/03/13 10:00:11;;;;;;;6.90;2.90;;;;;;;7.10;100.00;99875.44;110372;1274;22975;-69
2023/03/13 10:02:45;;;;;;;4.90;2.80;;;;;;;7.34;100.00;99879.52;110400;1275;22199;-69
2023/03/13 10:05:26;;;;;;;7.40;2.80;;;;;;;7.27;100.00;99876.32;110293;1275;22972;-69
2023/03/13 10:08:14;;;;;;;7.40;3.10;;;;;;;7.05;100.00;99867.88;110457;1275;22212;-69
2023/03/13 10:10:46;;;;;;;5.80;3.10;;;;;;;6.82;100.00;99867.50;110385;1275;22267;-69
2023/03/13 10:13:20;;;;;;;7.50;3.30;;;;;;;6.67;100.00;99867.88;110260;1267;22375;-68
2023/03/13 10:15:56;;;;;;;9.00;3.10;;;;;;;6.57;100.00;99863.25;110410;1275;22282;-69
2023/03/13 10:18:26;;;;;;;7.10;3.10;;;;;;;6.50;100.00;99864.01;110396;1275;22343;-69
2023/03/13 10:20:59;;;;;;;8.20;3.00;;;;;;;6.58;100.00;99858.30;110445;1275;22300;-69
2023/03/13 10:23:28;;;;;;;7.20;3.50;;;;;;;6.67;100.00;99854.89;110445;1268;23105;-68
2023/03/13 10:25:56;;;;;;;5.80;2.80;;;;;;;6.67;100.00;99858.30;110469;1275;22271;-69
2023/03/13 10:28:25;;;;;;;5.00;2.70;;;;;;;6.69;100.00;99852.16;110431;1275;22203;-68
2023/03/13 10:31:10;;;;;;;5.90;3.00;;;;;;;6.75;100.00;99853.95;110474;1275;22300;-69
2023/03/13 10:33:39;;;;;;;5.40;2.60;;;;;;;6.76;100.00;99850.17;110422;1273;22558;-69
2023/03/13 10:36:09;;;;;;;7.60;3.10;;;;;;;6.70;100.00;99838.88;110388;1276;22198;-69
2023/03/13 10:38:53;;;;;;;5.80;3.10;;;;;;;6.72;100.00;99836.64;110354;1270;22349;-69
2023/03/13 10:41:35;;;;;;;6.10;3.00;;;;;;;6.79;100.00;99835.84;110405;1274;22924;-69
2023/03/13 10:44:24;;;;;;;6.30;3.30;;;;;;;6.83;100.00;99823.24;110408;1269;22421;-69
2023/03/13 10:46:52;;;;;;;6.40;3.20;;;;;;;6.84;100.00;99815.95;110346;1269;22171;-68
2023/03/13 10:49:22;;;;;;;7.80;3.70;;;;;;;6.76;100.00;99811.55;110281;1270;22455;-69
2023/03/13 10:51:55;;;;;;;6.30;2.70;;;;;;;6.73;100.00;99812.96;110430;1275;22296;-69
2023/03/13 10:54:27;;;;;;;8.60;3.20;;;;;;;6.68;100.00;99813.41;110423;1270;23080;-68
2023/03/13 10:57:28;;;;;;;5.00;2.90;;;;;;;6.64;100.00;99811.29;109797;1270;22519;-68
2023/03/13 10:59:56;;;;;;;6.50;2.90;;;;;;;6.65;100.00;99806.29;107470;1273;25347;-68
2023/03/13 11:02:34;;;;;;;6.60;4.00;;;;;;;6.66;100.00;99810.56;107434;1275;22555;-68
2023/03/13 11:05:27;;;;;;;6.40;3.60;;;;;;;6.60;100.00;99806.41;107876;1275;22638;-68
2023/03/13 11:07:55;;;;;;;5.90;3.10;;;;;;;6.64;100.00;99808.27;107412;1273;23040;-68
2023/03/13 11:10:28;;;;;;;6.30;2.70;;;;;;;6.75;100.00;99801.42;107744;1274;23479;-69
2023/03/13 11:12:58;;;;;;;6.70;2.80;;;;;;;6.84;100.00;99793.55;110490;1275;22262;-69
2023/03/13 11:15:33;;;;;;;5.10;2.60;;;;;;;6.88;100.00;99783.56;110333;1272;22457;-69
2023/03/13 11:18:10;;;;;;;7.00;3.60;;;;;;;6.93;100.00;99779.36;110354;1272;22219;-69
2023/03/13 11:20:39;;;;;;;7.30;4.20;;;;;;;6.95;100.00;99778.64;110295;1273;22392;-69
2023/03/13 11:23:12;;;;;;;6.60;3.50;;;;;;;7.03;100.00;99776.86;110121;1275;22404;-69
2023/03/13 11:25:47;;;;;;;6.80;2.80;;;;;;;7.15;100.00;99774.65;110404;1275;22306;-69
2023/03/13 11:28:18;;;;;;;5.60;2.80;;;;;;;7.23;100.00;99766.17;110204;1273;22339;-70
2023/03/13 11:31:08;;;;;;;7.80;4.00;;;;;;;7.30;100.00;99766.64;110385;1270;22400;-69
2023/03/13 11:33:52;;;;;;;7.70;3.60;;;;;;;7.32;100.00;99764.40;110351;1267;22443;-70
2023/03/13 11:36:24;;;;;;;7.60;4.10;;;;;;;7.35;100.00;99764.72;110308;1275;22847;-71
2023/03/13 11:39:32;;;;;;;8.60;4.60;;;;;;;7.39;100.00;99758.59;110399;1275;23143;-71
2023/03/13 11:42:05;;;;;;;6.80;3.30;;;;;;;7.41;100.00;99751.52;110224;1275;22288;-71
2023/03/13 11:44:41;;;;;;;9.70;2.90;;;;;;;7.43;100.00;99754.31;110378;1267;23387;-71
2023/03/13 11:47:13;;;;;;;6.60;3.40;;;;;;;7.48;100.00;99747.94;110356;1269;22431;-69
2023/03/13 11:49:54;;;;;;;10.00;3.40;;;;;;;7.49;100.00;99744.04;110384;1274;22352;-70
2023/03/13 11:52:50;;;;;;;7.80;2.90;;;;;;;7.52;100.00;99736.13;110181;1273;22380;-70
2023/03/13 11:55:29;;;;;;;9.90;3.30;;;;;;;7.54;100.00;99731.37;110334;1275;22367;-70